1893 NOT_NAMED (1893128N11121)


IBTrACS version v04r00. Visit IBTrACS website for data access.
Please direct all questions to the IBTrACS Q and A forum

Storm track - Intensity - Wind Radii - Intensity Data - Source Data - All data

Summary Information

Storm ID 1893128N11121
Start May 7 16Z
Landfall May 13 09Z
End May 14 04Z
ATCF IDs
Track status Best track data.

Storm track plot

Map of storm track

Intensity plots

No Intensity information for this storm


Radial wind information

No radial wind information for this storm


Position and Intensity Table

BASIN ISO_TIME_________ NATURE LAT LON
degrees north degrees east
WP 1893-05-07 16:00:00 NR 11.20 121.40
WP 18:00:00 NR 11.21 121.13
WP 21:00:00 NR 11.23 120.73
WP 1893-05-08 00:00:00 NR 11.26 120.35
WP 03:00:00 NR 11.29 120.01
WP 04:00:00 NR 11.30 119.90
WP 06:00:00 NR 11.33 119.70
WP 09:00:00 NR 11.38 119.44
WP 12:00:00 NR 11.43 119.21
WP 15:00:00 NR 11.48 118.98
WP 16:00:00 NR 11.50 118.90
WP 18:00:00 NR 11.53 118.74
WP 21:00:00 NR 11.57 118.51
WP 1893-05-09 00:00:00 NR 11.62 118.26
WP 03:00:00 NR 11.68 118.00
WP 04:00:00 NR 11.70 117.90
WP 06:00:00 NR 11.75 117.69
WP 09:00:00 NR 11.84 117.36
WP 12:00:00 NR 11.95 117.00
WP 15:00:00 NR 12.06 116.63
WP 16:00:00 NR 12.10 116.50
WP 18:00:00 NR 12.17 116.24
WP 21:00:00 NR 12.29 115.85
WP 1893-05-10 00:00:00 NR 12.42 115.44
WP 03:00:00 NR 12.55 115.04
WP 04:00:00 NR 12.60 114.90
WP 06:00:00 NR 12.69 114.63
WP 09:00:00 NR 12.83 114.22
WP 12:00:00 NR 12.98 113.82
WP 15:00:00 NR 13.14 113.43
WP 16:00:00 NR 13.20 113.30
WP 18:00:00 NR 13.31 113.06
WP 21:00:00 NR 13.49 112.71
WP 1893-05-11 00:00:00 NR 13.69 112.37
WP 03:00:00 NR 13.92 112.02
WP 04:00:00 NR 14.00 111.90
WP 06:00:00 NR 14.17 111.63
WP 09:00:00 NR 14.44 111.22
WP 12:00:00 NR 14.75 110.80
WP 15:00:00 NR 15.08 110.42
WP 16:00:00 NR 15.20 110.30
WP 18:00:00 NR 15.44 110.08
WP 21:00:00 NR 15.83 109.78
WP 1893-05-12 00:00:00 NR 16.24 109.52
WP 03:00:00 NR 16.66 109.28
WP 04:00:00 NR 16.80 109.20
WP 06:00:00 NR 17.06 109.05
WP 09:00:00 NR 17.46 108.84
WP 12:00:00 NR 17.88 108.65
WP 15:00:00 NR 18.34 108.46
WP 16:00:00 NR 18.50 108.40
WP 18:00:00 NR 18.88 108.25
WP 21:00:00 NR 19.48 108.03
WP 1893-05-13 00:00:00 NR 20.09 107.82
WP 03:00:00 NR 20.64 107.65
WP 04:00:00 NR 20.80 107.60
WP 06:00:00 NR 21.06 107.53
WP 09:00:00 NR 21.38 107.47
WP 12:00:00 NR 21.65 107.43
WP 15:00:00 NR 21.91 107.41
WP 16:00:00 NR 22.00 107.40
WP 18:00:00 NR 22.19 107.38
WP 21:00:00 NR 22.50 107.33
WP 1893-05-14 00:00:00 NR 22.84 107.28
WP 03:00:00 NR 23.18 107.22
WP 04:00:00 NR 23.30 107.20

Source Information

Agency Information
USA
TOKYO
CMA
HKO
NEWDELHI
REUNION
BOM
NADI
WELLINGTON
DS824
TD9636 cons_worldwide_trop_cyclone_18710101-19891231-003:Line=1141
TD9635
NEUMANN
MLC

All available IBTrACS Data

SEASON BASIN SUBBASIN ISO_TIME_________ NATURE LAT LON DIST2LAND LANDFALL IFLAG USA SSHS TD9636 LAT TD9636 LON TD9636 STAGE STORM SPEED STORM DIR
Year degrees north degrees east km km 1 degrees north degrees east kts degrees
1893 WP MM 1893-05-07 16:00:00 NR 11.20 121.40 70 70 __________O___ -1 11.20 121.40 4 8 273
1893 WP MM 18:00:00 NR 11.21 121.13 98 98 __________P___ -1 11.21 121.13 4 8 273
1893 WP MM 21:00:00 NR 11.23 120.73 120 87 __________P___ -1 11.23 120.73 4 8 273
1893 WP MM 1893-05-08 00:00:00 NR 11.26 120.35 87 43 __________P___ -1 11.26 120.35 4 7 274
1893 WP MM 03:00:00 NR 11.29 120.01 43 32 __________P___ -1 11.29 120.01 4 7 276
1893 WP MM 04:00:00 NR 11.30 119.90 32 10 __________O___ -1 11.30 119.90 4 6 278
1893 WP MM 06:00:00 NR 11.33 119.70 10 0 __________P___ -1 11.33 119.70 4 5 280
1893 WP MM 09:00:00 NR 11.38 119.44 15 15 __________P___ -1 11.38 119.44 4 5 282
1893 WP MM 12:00:00 NR 11.43 119.21 31 31 __________P___ -1 11.43 119.21 4 5 283
1893 WP MM 15:00:00 NR 11.48 118.98 55 55 __________P___ -1 11.48 118.98 4 5 284
1893 WP MM 16:00:00 NR 11.50 118.90 64 64 __________O___ -1 11.50 118.90 4 5 281
1893 WP MM 18:00:00 NR 11.53 118.74 83 83 __________P___ -1 11.53 118.74 4 5 280
1893 WP MM 21:00:00 NR 11.57 118.51 107 107 __________P___ -1 11.57 118.51 4 5 281
1893 WP MM 1893-05-09 00:00:00 NR 11.62 118.26 128 128 __________P___ -1 11.62 118.26 4 5 282
1893 WP MM 03:00:00 NR 11.68 118.00 162 162 __________P___ -1 11.68 118.00 4 6 283
1893 WP MM 04:00:00 NR 11.70 117.90 172 172 __________O___ -1 11.70 117.90 4 6 284
1893 WP MM 06:00:00 NR 11.75 117.69 197 197 __________P___ -1 11.75 117.69 4 7 285
1893 WP MM 09:00:00 NR 11.84 117.36 228 238 __________P___ -1 11.84 117.36 4 7 286
1893 WP MM 12:00:00 NR 11.95 117.00 273 276 __________P___ -1 11.95 117.00 4 8 287
1893 WP MM 15:00:00 NR 12.06 116.63 321 321 __________P___ -1 12.06 116.63 4 8 287
1893 WP MM 16:00:00 NR 12.10 116.50 331 331 __________O___ -1 12.10 116.50 4 8 287
1893 WP MM 18:00:00 NR 12.17 116.24 366 366 __________P___ -1 12.17 116.24 4 8 287
1893 WP MM 21:00:00 NR 12.29 115.85 409 409 __________P___ -1 12.29 115.85 4 8 287
1893 WP MM 1893-05-10 00:00:00 NR 12.42 115.44 444 444 __________P___ -1 12.42 115.44 4 8 288
1893 WP MM 03:00:00 NR 12.55 115.04 488 488 __________P___ -1 12.55 115.04 4 8 289
1893 WP MM 04:00:00 NR 12.60 114.90 495 495 __________O___ -1 12.60 114.90 4 8 289
1893 WP MM 06:00:00 NR 12.69 114.63 525 509 __________P___ -1 12.69 114.63 4 8 289
1893 WP MM 09:00:00 NR 12.83 114.22 509 466 __________P___ -1 12.83 114.22 4 8 290
1893 WP MM 12:00:00 NR 12.98 113.82 466 423 __________P___ -1 12.98 113.82 4 8 292
1893 WP MM 15:00:00 NR 13.14 113.43 423 413 __________P___ -1 13.14 113.43 4 8 294
1893 WP MM 16:00:00 NR 13.20 113.30 413 392 __________O___ -1 13.20 113.30 4 8 295
1893 WP MM 18:00:00 NR 13.31 113.06 392 353 __________P___ -1 13.31 113.06 4 8 297
1893 WP MM 21:00:00 NR 13.49 112.71 353 323 __________P___ -1 13.49 112.71 4 8 299
1893 WP MM 1893-05-11 00:00:00 NR 13.69 112.37 326 291 __________P___ -1 13.69 112.37 4 8 302
1893 WP MM 03:00:00 NR 13.92 112.02 291 280 __________P___ -1 13.92 112.02 4 8 304
1893 WP MM 04:00:00 NR 14.00 111.90 280 250 __________O___ -1 14.00 111.90 4 9 303
1893 WP MM 06:00:00 NR 14.17 111.63 250 212 __________P___ -1 14.17 111.63 4 10 304
1893 WP MM 09:00:00 NR 14.44 111.22 212 182 __________P___ -1 14.44 111.22 4 10 306
1893 WP MM 12:00:00 NR 14.75 110.80 182 146 __________P___ -1 14.75 110.80 4 10 310
1893 WP MM 15:00:00 NR 15.08 110.42 146 140 __________P___ -1 15.08 110.42 4 10 313
1893 WP MM 16:00:00 NR 15.20 110.30 140 130 __________O___ -1 15.20 110.30 4 10 318
1893 WP MM 18:00:00 NR 15.44 110.08 130 111 __________P___ -1 15.44 110.08 4 10 322
1893 WP MM 21:00:00 NR 15.83 109.78 117 116 __________P___ -1 15.83 109.78 4 10 326
1893 WP MM 1893-05-12 00:00:00 NR 16.24 109.52 123 120 __________P___ -1 16.24 109.52 4 10 330
1893 WP MM 03:00:00 NR 16.66 109.28 132 123 __________P___ -1 16.66 109.28 4 10 332
1893 WP MM 04:00:00 NR 16.80 109.20 131 131 __________O___ -1 16.80 109.20 4 9 332
1893 WP MM 06:00:00 NR 17.06 109.05 134 102 __________P___ -1 17.06 109.05 4 9 333
1893 WP MM 09:00:00 NR 17.46 108.84 102 64 __________P___ -1 17.46 108.84 4 9 335
1893 WP MM 12:00:00 NR 17.88 108.65 67 30 __________P___ -1 17.88 108.65 4 10 338
1893 WP MM 15:00:00 NR 18.34 108.46 30 23 __________P___ -1 18.34 108.46 4 10 339
1893 WP MM 16:00:00 NR 18.50 108.40 31 31 __________O___ -1 18.50 108.40 4 12 340
1893 WP MM 18:00:00 NR 18.88 108.25 42 47 __________P___ -1 18.88 108.25 4 13 340
1893 WP MM 21:00:00 NR 19.48 108.03 66 66 __________P___ -1 19.48 108.03 4 13 341
1893 WP MM 1893-05-13 00:00:00 NR 20.09 107.82 108 49 __________P___ -1 20.09 107.82 4 12 343
1893 WP MM 03:00:00 NR 20.64 107.65 49 30 __________P___ -1 20.64 107.65 4 11 344
1893 WP MM 04:00:00 NR 20.80 107.60 30 10 __________O___ -1 20.80 107.60 4 9 346
1893 WP MM 06:00:00 NR 21.06 107.53 10 0 __________P___ -1 21.06 107.53 4 7 348
1893 WP MM 09:00:00 NR 21.38 107.47 0 0 __________P___ -1 21.38 107.47 4 6 351
1893 WP MM 12:00:00 NR 21.65 107.43 0 0 __________P___ -1 21.65 107.43 4 5 354
1893 WP MM 15:00:00 NR 21.91 107.41 0 0 __________P___ -1 21.91 107.41 4 5 352
1893 WP MM 16:00:00 NR 22.00 107.40 0 0 __________O___ -1 22.00 107.40 4 6 354
1893 WP MM 18:00:00 NR 22.19 107.38 0 0 __________P___ -1 22.19 107.38 4 6 353
1893 WP MM 21:00:00 NR 22.50 107.33 0 0 __________P___ -1 22.50 107.33 4 7 352
1893 WP MM 1893-05-14 00:00:00 NR 22.84 107.28 0 0 __________P___ -1 22.84 107.28 4 7 352
1893 WP MM 03:00:00 NR 23.18 107.22 0 0 __________P___ -1 23.18 107.22 4 7 351
1893 WP MM 04:00:00 NR 23.30 107.20 0 __________O___ -1 23.30 107.20 4 7 349